Terminal Aerodrome Forecast
Issued by NWS

Home | Current Version | Previous Version | Text Only | Print | Product List | Glossary On
Versions: 1 2 3 4 5 6 7 8 9 10 11 12 13 14 15 16 17 18 19 20 21 22 23
000
FTUS46 KSEW 272300 RRA
TAFBFI
TAF
KBFI 272341Z 2800/2824 17014G22KT P6SM -SHRA BKN025 OVC060
     FM280300 17012G22KT P6SM -SHRA BKN027 OVC100
     FM281200 17012G22KT 6SM RA BR OVC017
     FM281400 01005KT 6SM -RA BR OVC017
     FM282100 18006KT P6SM VCSH SCT017 OVC030=

USA.gov is the U.S. government's official web portal to all federal, state and local government web resources and services.